createdAt,value
2019-05-22T00:00:02.217Z,15.8
2019-05-22T00:05:04.097Z,15.6
2019-05-22T00:10:02.428Z,15.6
2019-05-22T00:15:02.857Z,15.6
2019-05-22T00:20:02.818Z,15.5
2019-05-22T00:25:01.789Z,15.5
2019-05-22T00:30:03.064Z,15.5
2019-05-22T00:35:01.907Z,15.5
2019-05-22T00:40:02.847Z,15.5
2019-05-22T00:45:01.764Z,15.5
2019-05-22T00:50:05.713Z,15.4
2019-05-22T00:55:01.861Z,15.4
2019-05-22T01:00:03.137Z,15.3
2019-05-22T01:05:02.176Z,15.3
2019-05-22T01:10:01.555Z,15.3
2019-05-22T01:15:03.127Z,15.3
2019-05-22T01:20:04.359Z,15.3
2019-05-22T01:25:05.493Z,15.3
2019-05-22T01:30:02.001Z,15.3
2019-05-22T01:35:03.290Z,15.3
2019-05-22T01:40:02.112Z,15.2
2019-05-22T01:45:06.341Z,15.2
2019-05-22T01:50:02.292Z,15.2
2019-05-22T01:55:01.339Z,15.3
2019-05-22T02:00:02.168Z,15.2
2019-05-22T02:05:01.316Z,15.2
2019-05-22T02:10:02.902Z,15.1
2019-05-22T02:15:01.420Z,14.9
2019-05-22T02:20:02.665Z,14.8
2019-05-22T02:25:01.749Z,14.8
2019-05-22T02:30:02.665Z,14.8
2019-05-22T02:35:01.879Z,14.7
2019-05-22T02:40:03.212Z,14.7
2019-05-22T02:45:02.117Z,14.7
2019-05-22T02:50:03.251Z,14.7
2019-05-22T02:55:02.068Z,14.6
2019-05-22T03:00:03.398Z,14.5
2019-05-22T03:05:01.844Z,14.5
2019-05-22T03:10:02.829Z,14.4
2019-05-22T03:15:02.108Z,14.4
2019-05-22T03:20:03.090Z,14.4
2019-05-22T03:25:02.158Z,14.2
2019-05-22T03:30:01.522Z,14.1
2019-05-22T03:35:02.823Z,14
2019-05-22T03:40:04.446Z,13.9
2019-05-22T03:45:02.859Z,13.9
2019-05-22T03:50:04.244Z,13.7
2019-05-22T03:55:02.776Z,13.7
2019-05-22T04:00:01.670Z,13.7
2019-05-22T04:05:10.340Z,13.7
2019-05-22T04:10:01.946Z,13.7
2019-05-22T04:15:03.183Z,13.7
2019-05-22T04:20:01.892Z,13.7
2019-05-22T04:25:03.254Z,13.7
2019-05-22T04:30:02.090Z,13.6
2019-05-22T04:35:03.276Z,13.5
2019-05-22T04:40:02.030Z,13.4
2019-05-22T04:45:01.390Z,13.3
2019-05-22T04:50:06.995Z,13.2
2019-05-22T04:55:01.571Z,13.1
2019-05-22T05:00:02.786Z,13.1
2019-05-22T05:05:01.818Z,13.1
2019-05-22T05:10:02.511Z,13
2019-05-22T05:15:01.925Z,12.8
2019-05-22T05:20:21.887Z,12.6
2019-05-22T05:25:01.526Z,12.6
2019-05-22T05:30:02.602Z,12.6
2019-05-22T05:35:04.294Z,12.6
2019-05-22T05:40:02.761Z,12.5
2019-05-22T05:45:01.844Z,12.6
2019-05-22T05:50:02.793Z,12.5
2019-05-22T05:55:01.691Z,12.4
2019-05-22T06:00:02.780Z,12.4
2019-05-22T06:05:01.526Z,12.4
2019-05-22T06:10:02.338Z,12.5
2019-05-22T06:15:01.723Z,12.5
2019-05-22T06:20:03.123Z,12.4
2019-05-22T06:25:02.417Z,12.3
2019-05-22T06:30:01.587Z,12.2
2019-05-22T06:35:02.437Z,12.2
2019-05-22T06:40:01.891Z,12.2
2019-05-22T06:45:03.912Z,12.2
2019-05-22T06:50:01.811Z,12.1
2019-05-22T06:55:02.945Z,12.1
2019-05-22T07:00:12.766Z,12.1
2019-05-22T07:05:02.831Z,12
2019-05-22T07:10:02.730Z,12
2019-05-22T07:15:09.297Z,11.8
2019-05-22T07:20:02.698Z,11.8
2019-05-22T07:25:01.638Z,11.8
2019-05-22T07:30:02.948Z,11.8
2019-05-22T07:35:01.834Z,11.9
2019-05-22T07:40:02.681Z,11.9
2019-05-22T07:45:01.778Z,11.9
2019-05-22T07:50:03.032Z,11.9
2019-05-22T07:55:02.323Z,11.9
2019-05-22T08:00:01.463Z,11.9
2019-05-22T08:05:02.360Z,12
2019-05-22T08:10:01.716Z,12
2019-05-22T08:15:10.519Z,11.9
2019-05-22T08:20:01.785Z,11.9
2019-05-22T08:25:02.850Z,11.9
2019-05-22T08:30:06.769Z,11.9
2019-05-22T08:35:10.345Z,11.9
2019-05-22T08:40:03.020Z,11.9
2019-05-22T08:45:02.955Z,11.9
2019-05-22T08:50:02.123Z,12
2019-05-22T08:55:02.943Z,12
2019-05-22T09:00:01.906Z,11.9
2019-05-22T09:05:02.987Z,12
2019-05-22T09:10:02.061Z,12
2019-05-22T09:15:03.156Z,12.1
2019-05-22T09:20:02.158Z,12.2
2019-05-22T09:25:03.538Z,12.2
2019-05-22T09:30:01.747Z,12.2
2019-05-22T09:35:02.832Z,12
2019-05-22T09:40:01.713Z,12
2019-05-22T09:45:02.862Z,12
2019-05-22T09:50:03.261Z,12.1
2019-05-22T09:55:02.061Z,12.1
2019-05-22T10:00:01.703Z,12
2019-05-22T10:05:02.786Z,12
2019-05-22T10:10:01.858Z,12
2019-05-22T10:15:03.995Z,12
2019-05-22T10:20:01.791Z,12
2019-05-22T10:25:14.459Z,12
2019-05-22T10:30:02.072Z,12
2019-05-22T10:35:01.369Z,12
2019-05-22T10:40:02.318Z,12.1
2019-05-22T10:45:01.602Z,12.2
2019-05-22T10:50:02.834Z,12.2
2019-05-22T10:55:01.725Z,12.2
2019-05-22T11:00:03.211Z,12.1
2019-05-22T11:05:02.175Z,12.1
2019-05-22T11:10:01.562Z,12.1
2019-05-22T11:15:02.622Z,12.1
2019-05-22T11:20:09.494Z,12
2019-05-22T11:25:03.210Z,12
2019-05-22T11:30:02.031Z,12
2019-05-22T11:35:01.634Z,12.1
2019-05-22T11:40:02.329Z,12.1
2019-05-22T11:45:01.613Z,12.2
2019-05-22T11:50:02.661Z,12.2
2019-05-22T11:55:01.567Z,12.3
2019-05-22T12:00:02.633Z,12.3
2019-05-22T12:05:01.617Z,12.3
2019-05-22T12:10:02.336Z,12.3
2019-05-22T12:15:01.547Z,12.2
2019-05-22T12:20:05.299Z,12.2
2019-05-22T12:25:01.968Z,12.2
2019-05-22T12:30:11.418Z,12.2
2019-05-22T12:35:02.411Z,12.2
2019-05-22T12:40:01.775Z,12.3
2019-05-22T12:45:03.489Z,12.2
2019-05-22T12:50:02.646Z,12.2
2019-05-22T12:55:02.953Z,12.2
2019-05-22T13:00:02.662Z,12.3
2019-05-22T13:05:02.935Z,12.3
2019-05-22T13:10:02.155Z,12.3
2019-05-22T13:15:09.408Z,12.3
2019-05-22T13:20:01.935Z,12.4
2019-05-22T13:25:02.978Z,12.4
2019-05-22T13:30:02.036Z,12.4
2019-05-22T13:35:03.317Z,12.4
2019-05-22T13:40:02.026Z,12.4
2019-05-22T13:45:28.194Z,12.5
2019-05-22T13:50:02.180Z,12.5
2019-05-22T13:55:01.407Z,12.5
2019-05-22T14:00:02.756Z,12.5
2019-05-22T14:05:01.896Z,12.6
2019-05-22T14:10:02.798Z,12.6
2019-05-22T14:15:01.980Z,12.5
2019-05-22T14:20:08.296Z,12.5
2019-05-22T14:25:01.992Z,12.5
2019-05-22T14:30:03.122Z,12.5
2019-05-22T14:35:02.011Z,12.5
2019-05-22T14:40:02.825Z,12.6
2019-05-22T14:45:02.060Z,12.6
2019-05-22T14:50:05.818Z,12.6
2019-05-22T14:55:02.786Z,12.6
2019-05-22T15:00:01.323Z,12.7
2019-05-22T15:05:02.630Z,12.7
2019-05-22T15:10:01.594Z,12.7
2019-05-22T15:15:02.400Z,12.7
2019-05-22T15:20:16.817Z,12.6
2019-05-22T15:25:02.741Z,12.6
2019-05-22T15:30:01.804Z,12.6
2019-05-22T15:35:02.835Z,12.7
2019-05-22T15:40:01.947Z,12.7
2019-05-22T15:45:03.017Z,12.7
2019-05-22T15:50:01.994Z,12.7
2019-05-22T15:55:13.338Z,12.8
2019-05-22T16:00:02.062Z,12.8
2019-05-22T16:05:03.338Z,12.8
2019-05-22T16:10:02.139Z,12.8
2019-05-22T16:15:01.535Z,12.8
2019-05-22T16:20:02.757Z,12.8
2019-05-22T16:25:01.618Z,12.8
2019-05-22T16:30:02.717Z,12.9
2019-05-22T16:35:01.841Z,12.9
2019-05-22T16:40:02.635Z,12.9
2019-05-22T16:45:01.761Z,12.9
2019-05-22T16:50:03.023Z,12.9
2019-05-22T16:55:02.085Z,13
2019-05-22T17:00:03.342Z,12.9
2019-05-22T17:05:02.451Z,13
2019-05-22T17:10:03.361Z,13
2019-05-22T17:15:02.169Z,13
2019-05-22T17:20:03.115Z,13
2019-05-22T17:25:02.164Z,13
2019-05-22T17:30:01.542Z,13
2019-05-22T17:35:02.358Z,13.1
2019-05-22T17:40:01.970Z,13.1
2019-05-22T17:45:02.542Z,13.1
2019-05-22T17:50:01.938Z,13.1
2019-05-22T17:55:03.178Z,13.1
2019-05-22T18:00:01.890Z,13.2
2019-05-22T18:05:06.416Z,13.2
2019-05-22T18:10:02.019Z,13.2
2019-05-22T18:15:05.445Z,13.2
2019-05-22T18:20:01.944Z,13.2
2019-05-22T18:25:03.038Z,13.2
2019-05-22T18:30:01.854Z,13.2
2019-05-22T18:35:02.905Z,13.1
2019-05-22T18:40:01.824Z,13.1
2019-05-22T18:45:02.795Z,13.1
2019-05-22T18:50:01.900Z,13.2
2019-05-22T18:55:03.196Z,13.1
2019-05-22T19:00:05.186Z,13.1
2019-05-22T19:05:08.365Z,13.1
2019-05-22T19:10:02.456Z,13.1
2019-05-22T19:15:01.658Z,13.1
2019-05-22T19:20:02.153Z,13
2019-05-22T19:25:08.943Z,12.9
2019-05-22T19:30:02.183Z,12.9
2019-05-22T19:35:01.258Z,12.9
2019-05-22T19:40:04.801Z,12.8
2019-05-22T19:45:01.678Z,12.8
2019-05-22T19:50:02.616Z,12.8
2019-05-22T19:55:01.793Z,12.8
2019-05-22T20:00:02.696Z,12.8
2019-05-22T20:05:01.620Z,12.7
2019-05-22T20:10:02.465Z,12.6
2019-05-22T20:15:01.722Z,12.6
2019-05-22T20:20:01.974Z,12.6
2019-05-22T20:25:02.824Z,12.6
2019-05-22T20:30:01.679Z,12.5
2019-05-22T20:35:02.859Z,12.5
2019-05-22T20:40:01.619Z,12.5
2019-05-22T20:45:02.624Z,12.5
2019-05-22T20:50:01.988Z,12.5
2019-05-22T20:55:01.319Z,12.5
2019-05-22T21:00:02.195Z,12.5
2019-05-22T21:05:01.490Z,12.4
2019-05-22T21:10:02.728Z,12.4
2019-05-22T21:15:06.902Z,12.4
2019-05-22T21:20:03.019Z,12.4
2019-05-22T21:25:01.906Z,12.4
2019-05-22T21:30:03.341Z,12.4
2019-05-22T21:35:02.076Z,12.4
2019-05-22T21:40:03.815Z,12.4
2019-05-22T21:45:02.025Z,12.4
2019-05-22T21:50:03.517Z,12.3
2019-05-22T21:55:02.013Z,12.3
2019-05-22T22:00:05.921Z,12.3
2019-05-22T22:05:01.803Z,12.3
2019-05-22T22:10:02.461Z,12.3
2019-05-22T22:15:01.714Z,12.3
2019-05-22T22:20:02.799Z,12.2
2019-05-22T22:25:01.844Z,12.2
2019-05-22T22:30:03.200Z,12.2
2019-05-22T22:35:04.715Z,12.2
2019-05-22T22:40:04.000Z,12.1
2019-05-22T22:45:02.445Z,12.1
2019-05-22T22:50:01.627Z,12.1
2019-05-22T22:55:02.673Z,12.1
2019-05-22T23:00:02.079Z,12.1
2019-05-22T23:05:02.933Z,12.1
2019-05-22T23:10:01.872Z,12.1
2019-05-22T23:15:02.881Z,12
2019-05-22T23:20:01.853Z,12
2019-05-22T23:25:03.154Z,11.9
2019-05-22T23:30:02.008Z,11.9
2019-05-22T23:35:01.329Z,11.8
2019-05-22T23:40:02.301Z,11.8
2019-05-22T23:45:01.455Z,11.8
2019-05-22T23:50:02.663Z,11.8
2019-05-22T23:55:01.737Z,11.8
